createdAt,value
2023-05-19T00:10:01.718Z,99585.40
2023-05-19T00:20:11.088Z,99582.84
2023-05-19T00:30:15.761Z,99574.57
2023-05-19T00:40:19.281Z,99571.93
2023-05-19T00:50:23.820Z,99571.12
2023-05-19T01:00:29.412Z,99563.00
2023-05-19T01:10:33.636Z,99560.84
2023-05-19T01:20:52.273Z,99556.02
2023-05-19T01:30:59.731Z,99559.45
2023-05-19T01:41:03.333Z,99552.84
2023-05-19T01:51:07.057Z,99543.38
2023-05-19T02:01:11.644Z,99542.85
2023-05-19T02:11:19.278Z,99544.63
2023-05-19T02:21:23.292Z,99535.10
2023-05-19T02:31:27.036Z,99532.16
2023-05-19T02:41:31.054Z,99523.19
2023-05-19T02:51:34.831Z,99518.15
2023-05-19T03:01:39.925Z,99517.33
2023-05-19T03:11:44.005Z,99517.19
2023-05-19T03:21:48.274Z,99506.96
2023-05-19T03:31:52.275Z,99505.95
2023-05-19T03:41:56.198Z,99497.19
2023-05-19T03:52:03.305Z,99504.70
2023-05-19T04:02:08.264Z,99505.34
2023-05-19T04:12:15.683Z,99512.48
2023-05-19T04:22:23.307Z,99528.62
2023-05-19T04:32:26.557Z,99537.36
2023-05-19T04:42:30.229Z,99530.77
2023-05-19T04:52:34.019Z,99539.21
2023-05-19T05:02:38.432Z,99534.02
2023-05-19T05:12:47.512Z,99530.27
2023-05-19T05:22:52.354Z,99531.18
2023-05-19T05:32:56.283Z,99529.70
2023-05-19T05:43:00.178Z,99533.60
2023-05-19T05:53:06.036Z,99539.86
2023-05-19T06:03:10.341Z,99538.58
2023-05-19T06:13:15.815Z,99545.77
2023-05-19T06:23:19.551Z,99552.53
2023-05-19T06:33:24.663Z,99561.97
2023-05-19T06:43:29.837Z,99563.48
2023-05-19T06:53:34.258Z,99555.48
2023-05-19T07:03:38.151Z,99548.33
2023-05-19T07:13:42.108Z,99542.02
2023-05-19T07:23:45.695Z,99546.52
2023-05-19T07:33:49.553Z,99538.06
2023-05-19T07:43:53.504Z,99544.83
2023-05-19T07:53:57.872Z,99550.30
2023-05-19T08:04:02.103Z,99548.98
2023-05-19T08:14:05.905Z,99548.59
2023-05-19T08:24:09.846Z,99536.05
2023-05-19T08:34:13.446Z,99540.36
2023-05-19T08:44:19.040Z,99545.19
2023-05-19T08:54:29.875Z,99550.70
2023-05-19T09:04:34.571Z,99554.20
2023-05-19T09:14:41.897Z,99555.56
2023-05-19T09:24:46.934Z,99546.41
2023-05-19T09:34:50.538Z,99543.48
2023-05-19T09:45:00.282Z,99544.52
2023-05-19T09:55:03.814Z,99553.88
2023-05-19T10:05:08.031Z,99548.44
2023-05-19T10:15:17.687Z,99549.36
2023-05-19T10:25:25.065Z,99552.65
2023-05-19T10:35:49.948Z,99555.18
2023-05-19T10:45:55.088Z,99558.98
2023-05-19T10:56:03.374Z,99549.80
2023-05-19T11:06:24.930Z,99543.05
2023-05-19T11:16:28.677Z,99542.33
2023-05-19T11:26:42.506Z,99542.12
2023-05-19T11:36:47.738Z,99541.05
2023-05-19T11:46:51.607Z,99543.52
2023-05-19T11:56:55.338Z,99544.54
2023-05-19T12:06:59.351Z,99545.77
2023-05-19T12:17:10.274Z,99539.11
2023-05-19T12:27:22.844Z,99534.30
2023-05-19T12:37:29.381Z,99534.80
2023-05-19T12:47:34.763Z,99538.13
2023-05-19T12:57:40.932Z,99529.23
2023-05-19T13:07:53.757Z,99522.27
2023-05-19T13:17:58.445Z,99524.95
2023-05-19T13:28:04.981Z,99522.23
2023-05-19T13:38:10.854Z,99525.72
2023-05-19T13:48:15.385Z,99524.48
2023-05-19T13:58:19.724Z,99517.35
2023-05-19T14:08:23.349Z,99518.20
2023-05-19T14:18:26.640Z,99518.67
2023-05-19T14:28:30.417Z,99524.93
2023-05-19T14:38:37.822Z,99522.09
2023-05-19T14:48:41.444Z,99519.63
2023-05-19T14:58:45.321Z,99521.21
2023-05-19T15:08:49.386Z,99523.98
2023-05-19T15:18:53.395Z,99532.58
2023-05-19T15:28:57.317Z,99527.61
2023-05-19T15:39:00.353Z,99525.44
2023-05-19T15:49:04.442Z,99526.07
2023-05-19T15:59:08.219Z,99523.30
2023-05-19T16:09:12.346Z,99522.25
2023-05-19T16:19:16.118Z,99518.61
2023-05-19T16:29:20.368Z,99517.58
2023-05-19T16:39:24.252Z,99521.79
2023-05-19T16:49:28.295Z,99528.04
2023-05-19T16:59:31.894Z,99528.95
2023-05-19T17:09:35.495Z,99531.42
2023-05-19T17:19:39.179Z,99529.53
2023-05-19T17:29:42.816Z,99535.04
2023-05-19T17:39:46.985Z,99528.31
2023-05-19T17:49:50.700Z,99531.24
2023-05-19T17:59:55.837Z,99542.55
2023-05-19T18:10:00.106Z,99545.43
2023-05-19T18:20:03.790Z,99545.22
2023-05-19T18:30:08.362Z,99550.33
2023-05-19T18:40:11.343Z,99557.83
2023-05-19T18:50:15.995Z,99566.53
2023-05-19T19:00:20.321Z,99577.00
2023-05-19T19:10:24.021Z,99569.89
2023-05-19T19:20:27.745Z,99573.08
2023-05-19T19:30:35.125Z,99578.71
2023-05-19T19:40:39.037Z,99582.73
2023-05-19T19:50:42.974Z,99585.58
2023-05-19T20:00:46.518Z,99588.48
2023-05-19T20:10:50.587Z,99591.91
2023-05-19T20:20:57.976Z,99589.05
2023-05-19T20:31:01.902Z,99583.58
2023-05-19T20:41:06.060Z,99585.73
2023-05-19T20:51:09.595Z,99585.05
2023-05-19T21:01:13.305Z,99575.48
2023-05-19T21:11:17.778Z,99576.54
2023-05-19T21:21:21.410Z,99576.29
2023-05-19T21:31:25.087Z,99569.73
2023-05-19T21:41:29.702Z,99568.71
2023-05-19T21:51:33.898Z,99566.09
2023-05-19T22:01:37.535Z,99568.10
2023-05-19T22:11:41.347Z,99567.52
2023-05-19T22:21:51.784Z,99560.33
2023-05-19T22:31:57.593Z,99554.80
2023-05-19T22:42:02.068Z,99553.33
2023-05-19T22:52:07.410Z,99559.30
2023-05-19T23:02:11.030Z,99551.64
2023-05-19T23:12:16.034Z,99552.14
2023-05-19T23:22:19.806Z,99549.04
2023-05-19T23:32:23.614Z,99557.98
2023-05-19T23:42:28.217Z,99552.00
2023-05-19T23:52:32.203Z,99544.05
